createdAt,value
2022-10-16T00:01:15.991Z,13.20
2022-10-16T00:03:44.200Z,14.90
2022-10-16T00:06:11.743Z,13.67
2022-10-16T00:08:39.848Z,13.60
2022-10-16T00:11:13.179Z,15.80
2022-10-16T00:13:41.759Z,16.60
2022-10-16T00:16:09.303Z,14.07
2022-10-16T00:18:36.229Z,14.37
2022-10-16T00:21:07.223Z,14.67
2022-10-16T00:23:34.225Z,13.40
2022-10-16T00:26:03.318Z,15.60
2022-10-16T00:28:30.409Z,14.37
2022-10-16T00:30:57.219Z,12.57
2022-10-16T00:33:23.992Z,12.90
2022-10-16T00:35:51.237Z,12.67
2022-10-16T00:38:18.248Z,13.97
2022-10-16T00:40:44.851Z,14.30
2022-10-16T00:43:40.473Z,13.37
2022-10-16T00:46:11.453Z,10.40
2022-10-16T00:48:38.136Z,12.17
2022-10-16T00:51:06.926Z,10.40
2022-10-16T00:53:34.387Z,8.43
2022-10-16T00:56:00.968Z,9.00
2022-10-16T00:58:27.526Z,7.97
2022-10-16T01:00:54.055Z,5.50
2022-10-16T01:03:27.698Z,9.43
2022-10-16T01:06:27.221Z,7.83
2022-10-16T01:09:17.431Z,5.37
2022-10-16T01:11:48.805Z,4.30
2022-10-16T01:14:27.727Z,3.90
2022-10-16T01:17:03.205Z,3.67
2022-10-16T01:19:52.228Z,5.17
2022-10-16T01:22:23.055Z,5.03
2022-10-16T01:24:50.752Z,6.07
2022-10-16T01:27:20.048Z,7.10
2022-10-16T01:30:10.765Z,8.60
2022-10-16T01:32:50.541Z,4.53
2022-10-16T01:35:59.453Z,9.80
2022-10-16T01:38:37.992Z,6.00
2022-10-16T01:41:16.095Z,5.07
2022-10-16T01:44:07.228Z,5.07
2022-10-16T01:46:37.088Z,6.93
2022-10-16T01:49:04.246Z,5.93
2022-10-16T01:51:31.307Z,6.57
2022-10-16T01:54:02.087Z,4.30
2022-10-16T01:56:30.551Z,6.67
2022-10-16T01:59:03.796Z,6.53
2022-10-16T02:01:34.778Z,6.23
2022-10-16T02:04:09.736Z,8.20
2022-10-16T02:06:36.942Z,7.17
2022-10-16T02:09:03.610Z,6.70
2022-10-16T02:11:30.626Z,5.50
2022-10-16T02:14:06.095Z,4.33
2022-10-16T02:16:35.664Z,5.53
2022-10-16T02:19:02.470Z,4.57
2022-10-16T02:21:36.031Z,3.50
2022-10-16T02:24:08.155Z,6.33
2022-10-16T02:26:47.410Z,4.33
2022-10-16T02:29:19.283Z,4.00
2022-10-16T02:31:50.415Z,6.00
2022-10-16T02:34:19.377Z,11.73
2022-10-16T02:36:48.318Z,4.00
2022-10-16T02:39:16.159Z,4.50
2022-10-16T02:41:42.723Z,5.20
2022-10-16T02:44:09.362Z,4.30
2022-10-16T02:46:35.865Z,6.67
2022-10-16T02:49:02.399Z,5.87
2022-10-16T02:51:29.026Z,6.37
2022-10-16T02:53:55.541Z,4.37
2022-10-16T02:56:22.069Z,5.10
2022-10-16T02:58:48.633Z,4.43
2022-10-16T03:01:17.747Z,4.50
2022-10-16T03:03:44.503Z,6.30
2022-10-16T03:06:11.065Z,5.63
2022-10-16T03:08:37.617Z,4.77
2022-10-16T03:11:04.233Z,5.67
2022-10-16T03:13:30.754Z,3.97
2022-10-16T03:15:57.279Z,4.33
2022-10-16T03:18:23.864Z,4.83
2022-10-16T03:20:50.426Z,4.80
2022-10-16T03:23:16.931Z,7.60
2022-10-16T03:25:43.418Z,3.80
2022-10-16T03:28:10.191Z,4.80
2022-10-16T03:30:36.691Z,5.10
2022-10-16T03:33:03.254Z,5.33
2022-10-16T03:35:30.665Z,5.00
2022-10-16T03:37:57.582Z,3.40
2022-10-16T03:40:24.296Z,3.30
2022-10-16T03:42:50.818Z,4.40
2022-10-16T03:45:17.584Z,5.13
2022-10-16T03:47:44.170Z,4.53
2022-10-16T03:50:10.699Z,3.83
2022-10-16T03:52:37.258Z,3.53
2022-10-16T03:55:03.888Z,4.73
2022-10-16T03:57:30.427Z,3.67
2022-10-16T03:59:56.931Z,6.00
2022-10-16T04:02:23.529Z,4.60
2022-10-16T04:04:50.046Z,3.10
2022-10-16T04:07:16.625Z,3.53
2022-10-16T04:09:43.161Z,5.97
2022-10-16T04:12:09.632Z,5.40
2022-10-16T04:14:36.207Z,5.30
2022-10-16T04:17:02.988Z,5.23
2022-10-16T04:19:29.480Z,5.47
2022-10-16T04:21:55.967Z,3.17
2022-10-16T04:24:22.468Z,6.27
2022-10-16T04:26:48.948Z,5.37
2022-10-16T04:29:15.523Z,8.63
2022-10-16T04:31:42.134Z,6.83
2022-10-16T04:34:08.640Z,5.47
2022-10-16T04:36:35.135Z,5.00
2022-10-16T04:39:01.738Z,5.80
2022-10-16T04:41:28.223Z,3.97
2022-10-16T04:43:54.737Z,4.00
2022-10-16T04:46:21.202Z,4.20
2022-10-16T04:48:47.929Z,4.83
2022-10-16T04:51:14.486Z,3.07
2022-10-16T04:53:41.073Z,6.43
2022-10-16T04:56:07.739Z,7.90
2022-10-16T04:58:34.310Z,2.83
2022-10-16T05:01:00.872Z,3.67
2022-10-16T05:03:27.482Z,4.10
2022-10-16T05:05:54.030Z,2.93
2022-10-16T05:08:20.556Z,4.17
2022-10-16T05:10:47.087Z,5.77
2022-10-16T05:13:13.666Z,6.23
2022-10-16T05:15:40.211Z,5.47
2022-10-16T05:18:06.803Z,6.53
2022-10-16T05:20:33.412Z,4.70
2022-10-16T05:22:59.951Z,7.13
2022-10-16T05:25:26.560Z,3.60
2022-10-16T05:27:53.115Z,4.77
2022-10-16T05:30:19.950Z,8.67
2022-10-16T05:32:50.980Z,5.30
2022-10-16T05:35:19.042Z,5.37
2022-10-16T05:37:45.615Z,7.80
2022-10-16T05:40:13.377Z,6.97
2022-10-16T05:42:40.387Z,5.13
2022-10-16T05:45:09.402Z,5.73
2022-10-16T05:47:35.990Z,7.97
2022-10-16T05:50:02.515Z,5.13
2022-10-16T05:52:29.074Z,6.53
2022-10-16T05:54:55.595Z,7.43
2022-10-16T05:57:22.130Z,6.43
2022-10-16T05:59:48.722Z,6.90
2022-10-16T06:02:15.910Z,8.20
2022-10-16T06:04:42.441Z,6.00
2022-10-16T06:07:09.176Z,6.10
2022-10-16T06:09:35.720Z,7.63
2022-10-16T06:12:02.225Z,6.23
2022-10-16T06:14:28.757Z,7.73
2022-10-16T06:16:55.272Z,9.93
2022-10-16T06:19:21.992Z,7.87
2022-10-16T06:21:49.073Z,8.03
2022-10-16T06:24:15.570Z,8.73
2022-10-16T06:26:42.133Z,11.30
2022-10-16T06:29:09.424Z,8.20
2022-10-16T06:31:36.030Z,9.57
2022-10-16T06:34:03.210Z,11.80
2022-10-16T06:36:30.173Z,9.10
2022-10-16T06:38:56.771Z,8.30
2022-10-16T06:41:24.462Z,6.87
2022-10-16T06:43:51.179Z,11.20
2022-10-16T06:46:20.897Z,7.43
2022-10-16T06:48:48.047Z,7.37
2022-10-16T06:51:17.132Z,7.83
2022-10-16T06:54:02.203Z,9.50
2022-10-16T06:56:32.294Z,10.90
2022-10-16T06:59:00.049Z,7.93
2022-10-16T07:01:27.188Z,7.60
2022-10-16T07:03:54.240Z,7.80
2022-10-16T07:06:22.883Z,11.67
2022-10-16T07:08:50.349Z,10.80
2022-10-16T07:11:19.528Z,9.80
2022-10-16T07:13:50.958Z,10.67
2022-10-16T07:16:24.097Z,9.63
2022-10-16T07:18:55.192Z,8.67
2022-10-16T07:21:23.861Z,9.43
2022-10-16T07:24:14.028Z,9.43
2022-10-16T07:26:41.372Z,9.10
2022-10-16T07:29:13.112Z,8.07
2022-10-16T07:31:40.175Z,11.37
2022-10-16T07:34:06.730Z,9.77
2022-10-16T07:36:33.307Z,9.60
2022-10-16T07:39:00.436Z,8.13
2022-10-16T07:41:27.931Z,12.83
2022-10-16T07:43:55.635Z,9.10
2022-10-16T07:46:23.736Z,7.10
2022-10-16T07:48:50.472Z,9.67
2022-10-16T07:51:19.488Z,7.77
2022-10-16T07:53:46.144Z,7.47
2022-10-16T07:56:13.404Z,8.03
2022-10-16T07:58:40.259Z,9.70
2022-10-16T08:01:12.482Z,7.90
2022-10-16T08:03:39.191Z,8.23
2022-10-16T08:06:06.186Z,8.40
2022-10-16T08:08:32.845Z,8.33
2022-10-16T08:10:59.419Z,10.07
2022-10-16T08:13:27.463Z,8.20
2022-10-16T08:15:55.015Z,7.63
2022-10-16T08:18:21.513Z,9.63
2022-10-16T08:20:48.094Z,8.73
2022-10-16T08:23:14.722Z,7.03
2022-10-16T08:25:42.348Z,10.60
2022-10-16T08:28:11.574Z,9.23
2022-10-16T08:30:38.578Z,7.13
2022-10-16T08:33:05.302Z,7.07
2022-10-16T08:35:31.855Z,9.57
2022-10-16T08:37:58.335Z,9.83
2022-10-16T08:40:33.980Z,9.80
2022-10-16T08:43:28.779Z,11.27
2022-10-16T08:46:10.419Z,6.23
2022-10-16T08:48:47.144Z,7.70
2022-10-16T08:51:43.298Z,5.73
2022-10-16T08:54:31.362Z,11.63
2022-10-16T08:57:10.186Z,5.73
2022-10-16T08:59:36.680Z,9.87
2022-10-16T09:02:03.393Z,6.27
2022-10-16T09:04:56.864Z,8.07
2022-10-16T09:08:12.451Z,15.83
2022-10-16T09:10:48.984Z,10.07
2022-10-16T09:13:42.839Z,9.50
2022-10-16T09:16:29.206Z,7.30
2022-10-16T09:19:13.462Z,6.80
2022-10-16T09:21:43.606Z,7.80
2022-10-16T09:24:19.687Z,4.87
2022-10-16T09:26:47.798Z,6.37
2022-10-16T09:29:15.908Z,6.63
2022-10-16T09:31:42.907Z,6.67
2022-10-16T09:34:32.917Z,5.93
2022-10-16T09:37:02.471Z,4.97
2022-10-16T09:39:29.031Z,6.40
2022-10-16T09:41:57.030Z,6.80
2022-10-16T09:44:30.663Z,9.13
2022-10-16T09:47:13.146Z,7.43
2022-10-16T09:49:39.691Z,4.50
2022-10-16T09:52:12.444Z,4.30
2022-10-16T09:54:49.355Z,8.47
2022-10-16T09:57:15.991Z,6.07
2022-10-16T09:59:53.865Z,7.43
2022-10-16T10:02:30.436Z,4.73
2022-10-16T10:04:57.815Z,5.87
2022-10-16T10:07:30.421Z,5.77
2022-10-16T10:09:58.280Z,5.30
2022-10-16T10:12:33.983Z,4.30
2022-10-16T10:15:08.255Z,8.37
2022-10-16T10:17:35.432Z,4.40
2022-10-16T10:20:22.824Z,3.10
2022-10-16T10:22:49.475Z,3.50
2022-10-16T10:25:22.228Z,7.07
2022-10-16T10:27:58.298Z,6.40
2022-10-16T10:30:56.871Z,3.87
2022-10-16T10:34:05.147Z,3.57
2022-10-16T10:36:37.644Z,7.90
2022-10-16T10:39:41.061Z,6.50
2022-10-16T10:42:27.014Z,8.00
2022-10-16T10:45:00.504Z,3.30
2022-10-16T10:47:53.323Z,7.63
2022-10-16T10:50:47.910Z,5.37
2022-10-16T10:53:45.210Z,8.57
2022-10-16T10:56:17.652Z,7.90
2022-10-16T10:59:11.098Z,5.37
2022-10-16T11:01:51.864Z,4.93
2022-10-16T11:04:42.690Z,4.83
2022-10-16T11:07:27.075Z,5.00
2022-10-16T11:10:14.109Z,8.83
2022-10-16T11:12:45.497Z,5.33
2022-10-16T11:15:25.163Z,6.83
2022-10-16T11:18:04.324Z,3.77
2022-10-16T11:20:34.862Z,4.10
2022-10-16T11:23:09.202Z,6.30
2022-10-16T11:25:35.865Z,5.37
2022-10-16T11:28:28.056Z,6.57
2022-10-16T11:31:06.267Z,6.40
2022-10-16T11:34:00.750Z,4.07
2022-10-16T11:36:36.324Z,6.40
2022-10-16T11:39:32.602Z,2.80
2022-10-16T11:42:10.944Z,3.60
2022-10-16T11:44:58.816Z,6.93
2022-10-16T11:47:58.915Z,4.40
2022-10-16T11:50:46.795Z,5.57
2022-10-16T11:53:22.380Z,4.47
2022-10-16T11:55:48.917Z,3.13
2022-10-16T11:58:20.574Z,6.83
2022-10-16T12:01:20.918Z,4.43
2022-10-16T12:04:23.016Z,6.93
2022-10-16T12:07:03.331Z,6.33
2022-10-16T12:09:32.277Z,3.37
2022-10-16T12:11:59.908Z,4.20
2022-10-16T12:14:29.139Z,6.30
2022-10-16T12:17:00.841Z,6.90
2022-10-16T12:19:31.322Z,5.00
2022-10-16T12:22:00.557Z,3.57
2022-10-16T12:24:44.059Z,4.60
2022-10-16T12:27:30.120Z,5.27
2022-10-16T12:30:02.561Z,3.40
2022-10-16T12:32:51.912Z,4.57
2022-10-16T12:35:25.051Z,5.03
2022-10-16T12:37:52.913Z,8.50
2022-10-16T12:40:46.933Z,7.30
2022-10-16T12:43:29.822Z,6.80
2022-10-16T12:46:08.775Z,6.30
2022-10-16T12:48:48.585Z,6.53
2022-10-16T12:51:29.399Z,4.77
2022-10-16T12:54:00.780Z,6.30
2022-10-16T12:56:44.530Z,6.63
2022-10-16T12:59:29.650Z,6.97
2022-10-16T13:02:18.008Z,7.17
2022-10-16T13:05:04.593Z,5.00
2022-10-16T13:07:51.922Z,5.77
2022-10-16T13:10:32.653Z,5.17
2022-10-16T13:13:11.805Z,6.17
2022-10-16T13:16:06.181Z,6.47
2022-10-16T13:19:10.351Z,7.27
2022-10-16T13:22:11.375Z,8.80
2022-10-16T13:24:57.960Z,4.53
2022-10-16T13:27:47.411Z,7.43
2022-10-16T13:30:23.143Z,5.57
2022-10-16T13:33:01.646Z,8.23
2022-10-16T13:35:34.933Z,5.53
2022-10-16T13:38:17.664Z,3.87
2022-10-16T13:40:58.556Z,3.97
2022-10-16T13:43:34.012Z,4.07
2022-10-16T13:46:21.951Z,3.70
2022-10-16T13:49:02.928Z,5.60
2022-10-16T13:51:30.982Z,4.23
2022-10-16T13:53:58.429Z,6.70
2022-10-16T13:56:33.398Z,9.83
2022-10-16T13:59:05.601Z,10.83
2022-10-16T14:01:44.736Z,6.63
2022-10-16T14:04:14.945Z,7.90
2022-10-16T14:06:45.236Z,5.77
2022-10-16T14:09:28.417Z,9.00
2022-10-16T14:12:11.329Z,9.80
2022-10-16T14:14:46.305Z,7.57
2022-10-16T14:17:36.653Z,4.73
2022-10-16T14:20:07.110Z,9.67
2022-10-16T14:22:37.022Z,5.03
2022-10-16T14:25:27.580Z,7.20
2022-10-16T14:28:18.401Z,3.73
2022-10-16T14:30:57.073Z,9.90
2022-10-16T14:33:31.037Z,9.13
2022-10-16T14:36:02.443Z,8.63
2022-10-16T14:38:30.141Z,7.27
2022-10-16T14:40:59.984Z,8.20
2022-10-16T14:43:34.448Z,3.83
2022-10-16T14:46:03.407Z,5.53
2022-10-16T14:48:30.166Z,5.87
2022-10-16T14:50:56.825Z,4.10
2022-10-16T14:53:23.318Z,5.20
2022-10-16T14:55:50.478Z,5.07
2022-10-16T14:58:24.353Z,6.27
2022-10-16T15:00:50.856Z,5.30
2022-10-16T15:03:17.688Z,3.40
2022-10-16T15:05:44.400Z,4.97
2022-10-16T15:08:10.991Z,5.23
2022-10-16T15:10:41.555Z,4.13
2022-10-16T15:13:12.664Z,4.50
2022-10-16T15:15:43.806Z,4.50
2022-10-16T15:18:10.549Z,3.33
2022-10-16T15:20:39.299Z,4.17
2022-10-16T15:23:13.688Z,5.17
2022-10-16T15:25:47.731Z,5.07
2022-10-16T15:28:15.581Z,5.07
2022-10-16T15:30:43.150Z,6.13
2022-10-16T15:33:15.713Z,6.33
2022-10-16T15:35:42.925Z,5.83
2022-10-16T15:38:13.573Z,6.23
2022-10-16T15:40:40.818Z,2.20
2022-10-16T15:43:07.390Z,5.93
2022-10-16T15:45:34.068Z,3.97
2022-10-16T15:48:00.812Z,2.97
2022-10-16T15:50:28.073Z,4.53
2022-10-16T15:52:54.551Z,7.00
2022-10-16T15:55:21.181Z,7.13
2022-10-16T15:57:47.700Z,4.20
2022-10-16T16:00:17.073Z,9.30
2022-10-16T16:02:45.126Z,8.27
2022-10-16T16:05:12.312Z,16.30
2022-10-16T16:07:40.620Z,7.37
2022-10-16T16:10:09.189Z,7.60
2022-10-16T16:12:36.014Z,6.87
2022-10-16T16:15:05.593Z,7.23
2022-10-16T16:17:33.901Z,6.13
2022-10-16T16:20:00.485Z,4.27
2022-10-16T16:22:27.498Z,5.30
2022-10-16T16:24:54.748Z,4.27
2022-10-16T16:27:21.281Z,6.03
2022-10-16T16:29:48.574Z,3.63
2022-10-16T16:32:15.237Z,5.63
2022-10-16T16:34:41.771Z,4.30
2022-10-16T16:37:08.826Z,4.50
2022-10-16T16:39:35.676Z,6.80
2022-10-16T16:42:04.001Z,8.60
2022-10-16T16:44:30.644Z,9.10
2022-10-16T16:46:57.209Z,7.37
2022-10-16T16:49:23.822Z,7.53
2022-10-16T16:51:50.334Z,4.13
2022-10-16T16:54:16.816Z,5.13
2022-10-16T16:56:46.299Z,6.77
2022-10-16T16:59:20.586Z,6.07
2022-10-16T17:01:49.125Z,5.87
2022-10-16T17:04:17.451Z,7.07
2022-10-16T17:06:44.425Z,5.03
2022-10-16T17:09:14.026Z,6.03
2022-10-16T17:11:42.561Z,6.73
2022-10-16T17:14:10.799Z,6.50
2022-10-16T17:16:38.345Z,7.60
2022-10-16T17:19:08.189Z,4.17
2022-10-16T17:21:35.708Z,8.03
2022-10-16T17:24:02.747Z,4.77
2022-10-16T17:26:29.775Z,5.63
2022-10-16T17:28:59.277Z,7.10
2022-10-16T17:31:31.274Z,6.07
2022-10-16T17:34:02.029Z,9.27
2022-10-16T17:36:31.563Z,4.93
2022-10-16T17:39:01.678Z,5.47
2022-10-16T17:41:28.308Z,6.17
2022-10-16T17:43:54.898Z,7.37
2022-10-16T17:46:23.822Z,6.93
2022-10-16T17:48:56.033Z,3.77
2022-10-16T17:51:29.254Z,4.93
2022-10-16T17:53:58.191Z,3.57
2022-10-16T17:56:25.691Z,5.20
2022-10-16T17:58:55.001Z,4.93
2022-10-16T18:01:30.771Z,5.20
2022-10-16T18:04:05.141Z,6.37
2022-10-16T18:06:32.434Z,3.10
2022-10-16T18:09:01.937Z,5.30
2022-10-16T18:11:29.448Z,6.93
2022-10-16T18:13:57.666Z,7.83
2022-10-16T18:16:25.667Z,6.30
2022-10-16T18:18:52.552Z,3.23
2022-10-16T18:21:20.539Z,2.63
2022-10-16T18:23:51.693Z,8.73
2022-10-16T18:26:20.105Z,6.67
2022-10-16T18:28:46.841Z,6.13
2022-10-16T18:31:16.482Z,10.27
2022-10-16T18:33:50.713Z,4.77
2022-10-16T18:36:23.618Z,6.63
2022-10-16T18:38:50.487Z,6.77
2022-10-16T18:41:18.288Z,6.53
2022-10-16T18:43:44.861Z,5.80
2022-10-16T18:46:25.163Z,4.60
2022-10-16T18:48:54.140Z,7.37
2022-10-16T18:51:24.114Z,9.33
2022-10-16T18:53:55.950Z,7.93
2022-10-16T18:56:24.253Z,4.03
2022-10-16T18:58:54.002Z,5.47
2022-10-16T19:01:23.401Z,7.97
2022-10-16T19:03:55.768Z,8.60
2022-10-16T19:06:22.644Z,5.90
2022-10-16T19:08:49.839Z,4.43
2022-10-16T19:11:21.695Z,5.10
2022-10-16T19:13:49.558Z,7.40
2022-10-16T19:16:20.226Z,8.30
2022-10-16T19:18:48.480Z,8.27
2022-10-16T19:21:15.800Z,8.23
2022-10-16T19:23:42.695Z,5.80
2022-10-16T19:26:15.647Z,5.80
2022-10-16T19:28:43.540Z,9.53
2022-10-16T19:31:13.987Z,6.70
2022-10-16T19:33:41.609Z,7.47
2022-10-16T19:36:15.649Z,10.13
2022-10-16T19:38:42.671Z,9.17
2022-10-16T19:41:16.595Z,7.47
2022-10-16T19:43:44.243Z,7.23
2022-10-16T19:46:16.250Z,10.23
2022-10-16T19:48:43.803Z,5.43
2022-10-16T19:51:16.796Z,6.43
2022-10-16T19:53:44.548Z,6.27
2022-10-16T19:56:18.124Z,8.10
2022-10-16T19:58:45.993Z,5.17
2022-10-16T20:01:14.365Z,5.77
2022-10-16T20:03:41.218Z,7.90
2022-10-16T20:06:09.373Z,10.23
2022-10-16T20:08:38.493Z,6.00
2022-10-16T20:11:09.690Z,11.53
2022-10-16T20:13:39.845Z,7.17
2022-10-16T20:16:09.927Z,7.73
2022-10-16T20:18:37.556Z,11.53
2022-10-16T20:21:12.662Z,10.00
2022-10-16T20:23:39.254Z,9.90
2022-10-16T20:26:06.509Z,9.77
2022-10-16T20:28:33.494Z,10.47
2022-10-16T20:31:06.905Z,9.87
2022-10-16T20:33:33.645Z,8.20
2022-10-16T20:36:00.178Z,5.60
2022-10-16T20:38:26.749Z,8.77
2022-10-16T20:40:53.325Z,7.73
2022-10-16T20:43:20.271Z,7.43
2022-10-16T20:45:46.808Z,9.93
2022-10-16T20:48:14.132Z,10.47
2022-10-16T20:50:41.749Z,9.80
2022-10-16T20:53:08.774Z,9.93
2022-10-16T20:55:37.603Z,10.97
2022-10-16T20:58:05.133Z,9.03
2022-10-16T21:00:31.866Z,9.77
2022-10-16T21:02:58.459Z,8.30
2022-10-16T21:05:28.743Z,6.87
2022-10-16T21:07:55.842Z,11.60
2022-10-16T21:10:23.438Z,8.30
2022-10-16T21:12:59.036Z,9.87
2022-10-16T21:15:25.577Z,8.80
2022-10-16T21:17:53.212Z,5.73
2022-10-16T21:20:20.527Z,10.30
2022-10-16T21:22:47.093Z,6.67
2022-10-16T21:25:13.630Z,4.60
2022-10-16T21:27:41.115Z,9.70
2022-10-16T21:30:09.777Z,5.70
2022-10-16T21:32:38.066Z,7.60
2022-10-16T21:35:06.039Z,6.43
2022-10-16T21:37:33.786Z,5.00
2022-10-16T21:40:00.427Z,5.40
2022-10-16T21:42:27.203Z,3.57
2022-10-16T21:44:53.943Z,4.97
2022-10-16T21:47:20.512Z,5.93
2022-10-16T21:49:46.993Z,10.90
2022-10-16T21:52:13.736Z,8.97
2022-10-16T21:54:40.302Z,9.13
2022-10-16T21:57:06.835Z,8.77
2022-10-16T21:59:33.335Z,14.43
2022-10-16T22:02:02.574Z,11.70
2022-10-16T22:04:29.061Z,12.57
2022-10-16T22:06:55.565Z,8.87
2022-10-16T22:09:22.111Z,10.10
2022-10-16T22:11:49.927Z,9.30
2022-10-16T22:14:19.131Z,9.23
2022-10-16T22:16:46.592Z,14.53
2022-10-16T22:19:15.468Z,10.23
2022-10-16T22:21:43.767Z,9.10
2022-10-16T22:24:10.344Z,7.63
2022-10-16T22:26:38.388Z,10.57
2022-10-16T22:29:06.083Z,10.60
2022-10-16T22:31:33.537Z,11.80
2022-10-16T22:34:02.281Z,8.00
2022-10-16T22:36:29.077Z,9.53
2022-10-16T22:38:55.943Z,8.67
2022-10-16T22:41:24.590Z,10.93
2022-10-16T22:43:51.407Z,12.33
2022-10-16T22:46:20.644Z,15.77
2022-10-16T22:48:47.544Z,10.77
2022-10-16T22:51:16.889Z,10.13
2022-10-16T22:53:45.461Z,9.60
2022-10-16T22:56:13.936Z,10.40
2022-10-16T22:58:40.491Z,8.87
2022-10-16T23:01:15.719Z,9.27
2022-10-16T23:03:42.405Z,8.43
2022-10-16T23:06:08.992Z,9.53
2022-10-16T23:08:35.566Z,7.93
2022-10-16T23:11:06.260Z,9.07
2022-10-16T23:13:35.477Z,10.00
2022-10-16T23:16:04.211Z,9.90
2022-10-16T23:18:31.271Z,10.60
2022-10-16T23:20:57.723Z,8.57
2022-10-16T23:23:24.226Z,7.33
2022-10-16T23:25:50.713Z,10.30
2022-10-16T23:28:17.235Z,9.33
2022-10-16T23:30:43.763Z,12.57
2022-10-16T23:33:10.348Z,9.30
2022-10-16T23:35:39.934Z,10.03
2022-10-16T23:38:06.546Z,10.87
2022-10-16T23:40:33.038Z,9.27
2022-10-16T23:42:59.541Z,10.00
2022-10-16T23:45:26.025Z,9.07
2022-10-16T23:47:52.524Z,8.00
2022-10-16T23:50:19.029Z,11.43
2022-10-16T23:52:45.537Z,11.97
2022-10-16T23:55:12.051Z,13.70
2022-10-16T23:57:38.644Z,11.47
